createdAt,value
2018-04-11T00:00:53.067Z,99.41
2018-04-11T00:01:53.075Z,99.55
2018-04-11T00:02:53.088Z,99.99
2018-04-11T00:03:53.104Z,99.99
2018-04-11T00:04:53.106Z,99.99
2018-04-11T00:05:53.114Z,99.41
2018-04-11T00:06:53.127Z,99.41
2018-04-11T00:07:53.134Z,99.80
2018-04-11T00:08:53.146Z,98.85
2018-04-11T00:09:53.157Z,99.60
2018-04-11T00:10:53.174Z,98.56
2018-04-11T00:11:53.178Z,99.22
2018-04-11T00:12:53.190Z,99.04
2018-04-11T00:13:53.199Z,98.65
2018-04-11T00:14:53.211Z,98.36
2018-04-11T00:15:53.222Z,98.85
2018-04-11T00:16:53.236Z,99.13
2018-04-11T00:17:53.242Z,99.80
2018-04-11T00:18:53.255Z,99.60
2018-04-11T00:19:53.264Z,99.80
2018-04-11T00:20:53.273Z,99.70
2018-04-11T00:21:53.284Z,99.22
2018-04-11T00:22:53.295Z,99.51
2018-04-11T00:23:53.312Z,98.65
2018-04-11T00:24:53.318Z,98.27
2018-04-11T00:25:53.330Z,98.65
2018-04-11T00:26:53.339Z,98.56
2018-04-11T00:27:53.348Z,98.27
2018-04-11T00:28:53.357Z,98.56
2018-04-11T00:29:53.369Z,98.94
2018-04-11T00:30:53.375Z,98.46
2018-04-11T00:31:53.388Z,98.36
2018-04-11T00:32:53.393Z,98.65
2018-04-11T00:33:53.403Z,98.85
2018-04-11T00:34:53.410Z,97.41
2018-04-11T00:35:53.431Z,97.51
2018-04-11T00:36:53.429Z,98.36
2018-04-11T00:37:53.444Z,98.08
2018-04-11T00:38:53.451Z,97.61
2018-04-11T00:39:53.461Z,98.36
2018-04-11T00:40:53.468Z,98.08
2018-04-11T00:41:53.485Z,97.70
2018-04-11T00:42:53.488Z,97.70
2018-04-11T00:43:53.500Z,97.41
2018-04-11T00:44:53.510Z,97.61
2018-04-11T00:45:53.521Z,97.80
2018-04-11T00:46:53.533Z,98.08
2018-04-11T00:47:53.543Z,98.27
2018-04-11T00:48:53.553Z,97.70
2018-04-11T00:49:53.561Z,98.65
2018-04-11T00:50:53.571Z,98.08
2018-04-11T00:51:53.581Z,98.27
2018-04-11T00:52:53.594Z,98.65
2018-04-11T00:53:53.606Z,99.04
2018-04-11T00:54:53.617Z,99.51
2018-04-11T00:55:53.623Z,99.99
2018-04-11T00:56:53.633Z,99.04
2018-04-11T00:57:53.641Z,99.89
2018-04-11T00:58:53.652Z,99.80
2018-04-11T00:59:53.667Z,99.80
2018-04-11T01:00:53.674Z,98.94
2018-04-11T01:01:53.679Z,98.46
2018-04-11T01:02:53.691Z,99.04
2018-04-11T01:03:53.700Z,99.22
2018-04-11T01:04:53.724Z,99.04
2018-04-11T01:05:53.720Z,98.85
2018-04-11T01:06:53.734Z,99.99
2018-04-11T01:07:53.740Z,98.89
2018-04-11T01:08:53.750Z,98.70
2018-04-11T01:09:53.757Z,99.65
2018-04-11T01:10:53.767Z,99.46
2018-04-11T01:11:53.779Z,99.27
2018-04-11T01:12:53.832Z,99.27
2018-04-11T01:13:53.797Z,99.46
2018-04-11T01:14:53.815Z,99.46
2018-04-11T01:15:53.815Z,99.46
2018-04-11T01:16:53.828Z,98.70
2018-04-11T01:17:53.838Z,99.65
2018-04-11T01:18:53.848Z,99.84
2018-04-11T01:19:53.862Z,99.65
2018-04-11T01:20:53.869Z,99.75
2018-04-11T01:21:53.882Z,99.27
2018-04-11T01:22:53.890Z,99.65
2018-04-11T01:23:53.898Z,99.55
2018-04-11T01:24:53.906Z,99.46
2018-04-11T01:25:53.927Z,98.99
2018-04-11T01:26:53.929Z,99.55
2018-04-11T01:27:53.939Z,99.65
2018-04-11T01:28:53.949Z,99.27
2018-04-11T01:29:53.958Z,98.79
2018-04-11T01:30:53.969Z,99.37
2018-04-11T01:31:53.979Z,99.94
2018-04-11T01:32:53.996Z,99.99
2018-04-11T01:33:53.995Z,99.99
2018-04-11T01:34:54.005Z,99.99
2018-04-11T01:35:54.018Z,99.99
2018-04-11T01:36:54.029Z,99.99
2018-04-11T01:37:54.034Z,99.99
2018-04-11T01:38:54.058Z,99.99
2018-04-11T01:39:54.054Z,99.99
2018-04-11T01:40:54.066Z,99.99
2018-04-11T01:41:54.073Z,99.99
2018-04-11T01:42:54.089Z,99.94
2018-04-11T01:43:54.093Z,99.75
2018-04-11T01:44:54.122Z,99.84
2018-04-11T01:45:54.115Z,99.75
2018-04-11T01:46:54.123Z,99.75
2018-04-11T01:47:54.134Z,98.89
2018-04-11T01:48:54.145Z,99.65
2018-04-11T01:49:54.159Z,99.75
2018-04-11T01:50:54.172Z,99.75
2018-04-11T01:51:54.175Z,99.65
2018-04-11T01:52:54.183Z,99.69
2018-04-11T01:53:54.194Z,99.99
2018-04-11T01:54:54.205Z,99.99
2018-04-11T01:55:54.210Z,99.99
2018-04-11T01:56:54.223Z,99.99
2018-04-11T01:57:54.241Z,99.94
2018-04-11T01:58:54.257Z,99.99
2018-04-11T01:59:54.249Z,99.94
2018-04-11T02:00:54.261Z,99.60
2018-04-11T02:01:54.278Z,99.99
2018-04-11T02:02:54.281Z,99.99
2018-04-11T02:03:54.292Z,99.99
2018-04-11T02:04:54.303Z,99.99
2018-04-11T02:05:54.317Z,99.22
2018-04-11T02:06:54.324Z,99.13
2018-04-11T02:07:54.331Z,99.22
2018-04-11T02:08:54.342Z,99.32
2018-04-11T02:09:54.352Z,99.99
2018-04-11T02:10:54.363Z,99.03
2018-04-11T02:11:54.378Z,99.99
2018-04-11T02:12:54.381Z,99.99
2018-04-11T02:13:54.387Z,99.99
2018-04-11T02:14:54.399Z,99.99
2018-04-11T02:15:54.408Z,99.41
2018-04-11T02:16:54.421Z,99.69
2018-04-11T02:17:54.432Z,99.41
2018-04-11T02:18:54.438Z,99.99
2018-04-11T02:19:54.447Z,99.99
2018-04-11T02:20:54.457Z,99.99
2018-04-11T02:21:54.467Z,99.99
2018-04-11T02:22:54.476Z,99.99
2018-04-11T02:23:54.487Z,99.99
2018-04-11T02:24:54.496Z,99.99
2018-04-11T02:25:54.507Z,99.99
2018-04-11T02:26:54.518Z,99.99
2018-04-11T02:27:54.525Z,99.99
2018-04-11T02:28:54.533Z,99.99
2018-04-11T02:29:54.548Z,99.99
2018-04-11T02:30:54.553Z,99.89
2018-04-11T02:31:54.561Z,99.51
2018-04-11T02:32:54.572Z,99.32
2018-04-11T02:33:54.583Z,99.08
2018-04-11T02:34:54.595Z,99.32
2018-04-11T02:35:54.605Z,99.79
2018-04-11T02:36:54.612Z,98.88
2018-04-11T02:37:54.625Z,98.32
2018-04-11T02:38:54.630Z,98.60
2018-04-11T02:39:54.648Z,99.65
2018-04-11T02:40:54.649Z,99.99
2018-04-11T02:41:54.660Z,99.99
2018-04-11T02:42:54.670Z,99.99
2018-04-11T02:43:54.682Z,99.99
2018-04-11T02:44:54.748Z,99.99
2018-04-11T02:45:54.702Z,99.99
2018-04-11T02:46:54.707Z,99.99
2018-04-11T02:47:54.714Z,99.99
2018-04-11T02:48:54.725Z,99.99
2018-04-11T03:22:23.009Z,97.31
2018-04-11T03:23:23.016Z,97.13
2018-04-11T03:24:23.025Z,97.22
2018-04-11T03:25:23.029Z,97.41
2018-04-11T03:26:23.041Z,97.60
2018-04-11T03:27:23.050Z,97.69
2018-04-11T03:28:23.057Z,97.13
2018-04-11T03:29:23.066Z,95.98
2018-04-11T03:30:23.078Z,96.12
2018-04-11T03:31:23.082Z,96.26
2018-04-11T03:32:23.100Z,97.31
2018-04-11T03:33:23.103Z,97.13
2018-04-11T03:34:23.113Z,97.50
2018-04-11T03:35:23.122Z,97.13
2018-04-11T03:36:23.135Z,97.03
2018-04-11T03:37:23.151Z,96.65
2018-04-11T03:38:23.158Z,96.36
2018-04-11T03:39:23.158Z,96.03
2018-04-11T03:40:23.166Z,95.46
2018-04-11T03:41:23.178Z,95.60
2018-04-11T03:42:23.188Z,95.75
2018-04-11T03:43:23.193Z,94.03
2018-04-11T03:44:23.212Z,94.22
2018-04-11T03:45:23.213Z,94.22
2018-04-11T03:46:23.223Z,94.98
2018-04-11T03:47:23.230Z,95.08
2018-04-11T03:48:23.239Z,95.94
2018-04-11T03:49:23.248Z,96.50
2018-04-11T03:50:23.260Z,96.69
2018-04-11T03:51:23.268Z,97.64
2018-04-11T03:52:23.278Z,98.12
2018-04-11T03:53:23.285Z,98.31
2018-04-11T03:54:23.294Z,98.79
2018-04-11T03:55:23.304Z,99.26
2018-04-11T03:56:23.311Z,98.97
2018-04-11T03:57:23.318Z,97.83
2018-04-11T03:58:23.328Z,97.36
2018-04-11T03:59:23.338Z,97.08
2018-04-11T04:00:23.346Z,96.69
2018-04-11T04:01:23.355Z,96.22
2018-04-11T04:02:23.361Z,96.69
2018-04-11T04:03:23.370Z,95.94
2018-04-11T04:04:23.381Z,96.31
2018-04-11T04:05:23.390Z,96.22
2018-04-11T04:06:23.398Z,97.08
2018-04-11T04:07:23.406Z,98.03
2018-04-11T04:08:23.416Z,97.08
2018-04-11T04:09:23.450Z,96.31
2018-04-11T04:10:23.433Z,96.50
2018-04-11T04:11:23.446Z,96.50
2018-04-11T04:12:23.456Z,96.60
2018-04-11T04:13:23.482Z,95.65
2018-04-11T04:14:23.469Z,95.46
2018-04-11T04:15:23.478Z,96.03
2018-04-11T04:16:23.488Z,96.50
2018-04-11T04:17:23.495Z,96.31
2018-04-11T04:18:23.505Z,95.75
2018-04-11T04:19:23.512Z,94.89
2018-04-11T04:20:23.522Z,95.84
2018-04-11T04:21:23.532Z,95.08
2018-04-11T04:22:23.540Z,95.36
2018-04-11T04:23:23.550Z,95.27
2018-04-11T04:24:23.558Z,94.42
2018-04-11T04:25:23.566Z,92.99
2018-04-11T04:26:23.580Z,92.80
2018-04-11T04:27:23.582Z,92.03
2018-04-11T04:28:23.595Z,92.46
2018-04-11T04:29:23.600Z,92.85
2018-04-11T04:30:23.638Z,93.55
2018-04-11T04:31:23.626Z,94.89
2018-04-11T04:32:23.624Z,95.08
2018-04-11T04:33:23.635Z,94.98
2018-04-11T04:34:23.643Z,94.37
2018-04-11T04:35:23.651Z,94.13
2018-04-11T04:36:23.660Z,94.08
2018-04-11T04:37:23.667Z,93.79
2018-04-11T04:38:23.677Z,93.41
2018-04-11T04:39:23.689Z,93.70
2018-04-11T04:40:23.695Z,93.99
2018-04-11T04:41:23.703Z,94.37
2018-04-11T04:42:23.717Z,93.32
2018-04-11T04:43:23.724Z,92.94
2018-04-11T04:44:23.730Z,93.04
2018-04-11T04:45:23.740Z,93.89
2018-04-11T04:46:23.746Z,93.32
2018-04-11T04:47:23.755Z,93.60
2018-04-11T04:48:23.766Z,92.85
2018-04-11T04:49:23.774Z,92.75
2018-04-11T04:50:23.781Z,93.23
2018-04-11T04:51:23.792Z,93.70
2018-04-11T04:52:23.803Z,94.27
2018-04-11T04:53:23.808Z,94.74
2018-04-11T04:54:23.820Z,94.65
2018-04-11T04:55:23.824Z,95.03
2018-04-11T04:56:23.844Z,94.27
2018-04-11T04:57:23.844Z,94.46
2018-04-11T04:58:23.850Z,94.27
2018-04-11T04:59:23.861Z,93.79
2018-04-11T05:00:23.876Z,93.41
2018-04-11T05:01:23.877Z,93.70
2018-04-11T05:02:23.887Z,93.51
2018-04-11T05:03:23.894Z,93.99
2018-04-11T05:04:23.900Z,94.27
2018-04-11T05:05:23.910Z,93.89
2018-04-11T05:06:23.920Z,93.23
2018-04-11T05:07:23.929Z,93.70
2018-04-11T05:08:23.939Z,93.51
2018-04-11T05:09:23.944Z,92.56
2018-04-11T05:10:23.953Z,91.71
2018-04-11T05:11:23.968Z,91.42
2018-04-11T05:12:23.971Z,92.46
2018-04-11T05:13:23.983Z,92.56
2018-04-11T05:14:23.987Z,91.80
2018-04-11T05:15:23.995Z,91.23
2018-04-11T05:16:24.006Z,91.42
2018-04-11T05:17:24.012Z,92.85
2018-04-11T05:18:24.023Z,93.89
2018-04-11T05:19:24.036Z,93.79
2018-04-11T05:20:24.037Z,93.23
2018-04-11T05:21:24.045Z,93.23
2018-04-11T05:22:24.052Z,93.51
2018-04-11T05:23:24.063Z,94.27
2018-04-11T05:24:24.081Z,94.18
2018-04-11T05:25:24.081Z,95.17
2018-04-11T05:26:24.093Z,96.12
2018-04-11T05:27:24.093Z,97.36
2018-04-11T05:28:24.207Z,97.27
2018-04-11T05:29:24.112Z,97.17
2018-04-11T05:30:24.129Z,96.60
2018-04-11T05:31:24.135Z,96.08
2018-04-11T05:32:24.140Z,97.03
2018-04-11T05:33:24.149Z,96.93
2018-04-11T05:34:24.328Z,96.55
2018-04-11T05:35:24.168Z,97.03
2018-04-11T05:36:24.176Z,96.08
2018-04-11T05:37:24.184Z,96.36
2018-04-11T05:38:24.198Z,96.08
2018-04-11T05:39:24.210Z,96.55
2018-04-11T05:40:24.442Z,96.17
2018-04-11T05:41:24.215Z,96.55
2018-04-11T05:42:24.222Z,96.08
2018-04-11T05:43:24.232Z,96.45
2018-04-11T05:44:24.245Z,95.70
2018-04-11T05:45:24.251Z,95.89
2018-04-11T05:46:24.261Z,95.98
2018-04-11T05:47:24.269Z,96.17
2018-04-11T05:48:24.277Z,96.26
2018-04-11T05:49:24.285Z,96.26
2018-04-11T05:50:24.294Z,96.36
2018-04-11T05:51:24.302Z,96.84
2018-04-11T05:52:24.317Z,97.31
2018-04-11T05:53:24.346Z,98.17
2018-04-11T05:54:24.331Z,97.88
2018-04-11T05:55:24.343Z,97.97
2018-04-11T05:56:24.346Z,98.45
2018-04-11T05:57:24.355Z,98.36
2018-04-11T05:58:24.363Z,98.41
2018-04-11T05:59:24.498Z,97.97
2018-04-11T06:00:24.382Z,98.17
2018-04-11T06:01:24.391Z,98.69
2018-04-11T06:02:24.399Z,98.79
2018-04-11T06:03:24.408Z,99.26
2018-04-11T06:04:24.416Z,98.31
2018-04-11T06:05:24.428Z,98.50
2018-04-11T06:06:24.438Z,99.07
2018-04-11T06:07:24.439Z,99.07
2018-04-11T06:08:24.450Z,99.16
2018-04-11T06:09:24.458Z,99.36
2018-04-11T06:10:24.466Z,98.97
2018-04-11T06:11:24.476Z,98.88
2018-04-11T06:12:24.485Z,98.97
2018-04-11T06:13:24.494Z,99.74
2018-04-11T06:14:24.511Z,99.93
2018-04-11T06:15:24.601Z,99.93
2018-04-11T06:16:24.523Z,99.74
2018-04-11T06:17:24.528Z,99.99
2018-04-11T06:18:24.543Z,99.99
2018-04-11T06:19:24.546Z,99.99
2018-04-11T06:20:24.560Z,99.99
2018-04-11T06:21:24.567Z,99.99
2018-04-11T06:22:24.572Z,99.99
2018-04-11T06:23:24.580Z,99.99
2018-04-11T06:24:24.591Z,99.99
2018-04-11T06:25:24.601Z,99.88
2018-04-11T06:26:24.606Z,99.99
2018-04-11T06:27:24.618Z,99.99
2018-04-11T06:28:24.626Z,99.99
2018-04-11T06:29:24.633Z,99.99
2018-04-11T06:30:24.647Z,99.99
2018-04-11T06:31:24.654Z,99.99
2018-04-11T06:32:24.664Z,99.99
2018-04-11T06:33:24.672Z,99.99
2018-04-11T06:34:24.682Z,99.99
2018-04-11T06:35:24.687Z,99.99
2018-04-11T06:36:24.697Z,99.99
2018-04-11T06:37:24.710Z,99.99
2018-04-11T06:38:24.716Z,99.99
2018-04-11T06:39:24.725Z,99.99
2018-04-11T06:40:24.735Z,99.99
2018-04-11T06:41:24.748Z,99.99
2018-04-11T06:42:24.752Z,99.99
2018-04-11T06:43:24.759Z,99.99
2018-04-11T06:44:24.767Z,99.99
2018-04-11T06:45:24.778Z,99.99
2018-04-11T06:46:24.788Z,99.99
2018-04-11T06:47:24.795Z,99.99
2018-04-11T06:48:24.804Z,99.99
2018-04-11T06:49:24.817Z,99.99
2018-04-11T06:50:24.822Z,99.99
2018-04-11T06:51:24.832Z,99.99
2018-04-11T06:52:24.841Z,99.99
2018-04-11T06:53:24.860Z,99.99
2018-04-11T06:54:24.859Z,99.99
2018-04-11T06:55:24.867Z,99.99
2018-04-11T06:56:24.879Z,99.99
2018-04-11T06:57:24.885Z,99.99
2018-04-11T06:58:24.897Z,99.99
2018-04-11T06:59:24.905Z,99.99
2018-04-11T07:00:24.913Z,99.99
2018-04-11T07:01:24.925Z,99.99
2018-04-11T07:02:24.934Z,99.99
2018-04-11T07:03:24.945Z,99.99
2018-04-11T07:04:24.961Z,99.99
2018-04-11T07:05:24.961Z,99.99
2018-04-11T07:06:24.972Z,99.99
2018-04-11T07:07:24.979Z,99.99
2018-04-11T07:08:24.991Z,99.99
2018-04-11T07:09:25.037Z,99.99
2018-04-11T07:10:25.015Z,99.99
2018-04-11T07:11:25.017Z,99.99
2018-04-11T07:12:25.027Z,99.99
2018-04-11T07:13:25.031Z,99.99
2018-04-11T07:14:25.042Z,99.99
2018-04-11T07:15:25.051Z,99.99
2018-04-11T07:16:25.063Z,99.99
2018-04-11T07:17:25.070Z,99.99
2018-04-11T07:18:25.079Z,99.99
2018-04-11T07:19:25.094Z,99.99
2018-04-11T07:20:25.098Z,99.99
2018-04-11T07:21:25.200Z,99.99
2018-04-11T07:22:25.116Z,99.99
2018-04-11T07:23:25.129Z,99.99
2018-04-11T07:24:25.134Z,99.99
2018-04-11T07:25:25.145Z,99.99
2018-04-11T07:26:25.159Z,99.99
2018-04-11T07:27:25.162Z,99.99
2018-04-11T07:28:25.172Z,99.99
2018-04-11T07:29:25.182Z,99.99
2018-04-11T07:30:25.192Z,99.99
2018-04-11T07:31:25.197Z,99.99
2018-04-11T07:32:25.216Z,99.99
2018-04-11T07:33:25.222Z,99.99
2018-04-11T07:34:25.233Z,99.99
2018-04-11T07:35:25.241Z,99.13
2018-04-11T07:36:25.247Z,99.13
2018-04-11T07:37:25.257Z,99.69
2018-04-11T07:38:25.264Z,99.99
2018-04-11T07:39:25.273Z,99.32
2018-04-11T07:40:25.306Z,99.99
2018-04-11T07:41:25.293Z,99.99
2018-04-11T07:42:25.305Z,99.84
2018-04-11T07:43:25.313Z,99.08
2018-04-11T07:44:25.323Z,98.70
2018-04-11T07:45:25.329Z,99.27
2018-04-11T07:46:25.345Z,99.55
2018-04-11T07:47:25.349Z,99.55
2018-04-11T07:48:25.362Z,99.84
2018-04-11T07:49:25.372Z,99.99
2018-04-11T07:50:25.380Z,99.99
2018-04-11T07:51:25.385Z,99.99
2018-04-11T07:52:25.397Z,99.99
2018-04-11T07:53:25.405Z,99.99
2018-04-11T07:54:25.422Z,99.99
2018-04-11T07:55:25.427Z,99.99
2018-04-11T07:56:25.435Z,99.51
2018-04-11T07:57:25.445Z,99.60
2018-04-11T07:58:25.455Z,99.99
2018-04-11T07:59:25.466Z,99.99
2018-04-11T08:00:25.475Z,98.85
2018-04-11T08:01:25.481Z,99.04
2018-04-11T08:02:25.492Z,97.99
2018-04-11T08:03:25.536Z,98.85
2018-04-11T08:04:25.518Z,97.61
2018-04-11T08:05:25.520Z,95.70
2018-04-11T08:06:25.530Z,97.61
2018-04-11T08:07:25.544Z,97.89
2018-04-11T08:08:25.551Z,98.18
2018-04-11T08:09:25.561Z,99.80
2018-04-11T08:10:25.569Z,99.70
2018-04-11T08:11:25.581Z,98.85
2018-04-11T08:12:25.589Z,99.08
2018-04-11T08:13:25.602Z,97.70
2018-04-11T08:14:25.611Z,97.94
2018-04-11T08:15:25.622Z,97.66
2018-04-11T08:16:25.629Z,97.37
2018-04-11T08:17:25.638Z,97.56
2018-04-11T08:18:25.646Z,95.56
2018-04-11T08:19:25.698Z,95.94
2018-04-11T08:20:25.669Z,97.66
2018-04-11T08:21:25.676Z,98.61
2018-04-11T08:22:25.687Z,99.56
2018-04-11T08:23:25.695Z,99.85
2018-04-11T08:24:25.892Z,98.61
2018-04-11T08:25:25.716Z,97.56
2018-04-11T08:26:25.728Z,97.75
2018-04-11T08:27:25.737Z,95.94
2018-04-11T08:28:25.747Z,97.46
2018-04-11T08:29:25.755Z,94.89
2018-04-11T08:30:25.765Z,95.94
2018-04-11T08:31:25.778Z,94.70
2018-04-11T08:32:25.785Z,93.17
2018-04-11T08:33:25.793Z,93.84
2018-04-11T08:34:25.805Z,94.60
2018-04-11T08:35:25.819Z,94.03
2018-04-11T08:36:25.826Z,93.98
2018-04-11T08:37:25.841Z,95.89
2018-04-11T08:38:25.847Z,95.32
2018-04-11T08:39:25.856Z,94.84
2018-04-11T08:40:25.863Z,93.51
2018-04-11T08:41:25.876Z,94.07
2018-04-11T08:42:25.883Z,96.66
2018-04-11T08:43:25.893Z,95.98
2018-04-11T08:44:25.904Z,95.51
2018-04-11T08:45:25.922Z,96.27
2018-04-11T08:46:25.930Z,96.46
2018-04-11T08:47:25.952Z,97.22
2018-04-11T08:48:25.947Z,96.37
2018-04-11T08:49:25.954Z,95.70
2018-04-11T08:50:26.081Z,94.36
2018-04-11T08:51:25.978Z,93.60
2018-04-11T08:52:25.985Z,94.36
2018-04-11T08:53:25.994Z,95.61
2018-04-11T08:54:26.004Z,93.79
2018-04-11T08:55:26.014Z,95.70
2018-04-11T08:56:26.024Z,96.66
2018-04-11T08:57:26.034Z,95.70
2018-04-11T08:58:26.042Z,93.70
2018-04-11T08:59:26.057Z,94.03
2018-04-11T09:00:26.072Z,93.84
2018-04-11T09:01:26.075Z,95.08
2018-04-11T09:02:26.087Z,95.17
2018-04-11T09:03:26.096Z,94.89
2018-04-11T09:04:26.108Z,93.36
2018-04-11T09:05:26.162Z,91.21
2018-04-11T09:06:26.125Z,91.40
2018-04-11T09:07:26.135Z,93.21
2018-04-11T09:08:26.146Z,90.54
2018-04-11T09:09:26.161Z,91.40
2018-04-11T09:10:26.166Z,88.92
2018-04-11T09:11:26.176Z,88.87
2018-04-11T09:12:26.186Z,88.10
2018-04-11T09:13:26.197Z,90.97
2018-04-11T09:14:26.206Z,89.53
2018-04-11T09:15:26.219Z,89.53
2018-04-11T09:16:26.229Z,88.01
2018-04-11T09:17:26.240Z,86.80
2018-04-11T09:18:26.247Z,84.99
2018-04-11T09:19:26.258Z,83.04
2018-04-11T09:20:26.272Z,83.84
2018-04-11T09:21:26.291Z,83.94
2018-04-11T09:22:26.292Z,80.98
2018-04-11T09:23:26.301Z,80.79
2018-04-11T09:24:26.315Z,82.60
2018-04-11T09:25:26.321Z,80.02
2018-04-11T09:26:26.333Z,77.63
2018-04-11T09:27:26.343Z,78.30
2018-04-11T09:28:26.354Z,79.25
2018-04-11T09:29:26.374Z,82.12
2018-04-11T09:30:26.373Z,79.39
2018-04-11T09:31:26.395Z,78.49
2018-04-11T09:32:26.395Z,76.71
2018-04-11T09:33:26.424Z,76.81
2018-04-11T09:34:26.414Z,76.62
2018-04-11T09:35:26.428Z,78.81
2018-04-11T09:36:26.437Z,81.11
2018-04-11T09:37:26.448Z,81.40
2018-04-11T09:38:26.460Z,80.92
2018-04-11T09:39:26.471Z,82.17
2018-04-11T09:40:26.480Z,81.02
2018-04-11T09:41:26.498Z,79.10
2018-04-11T09:42:26.515Z,80.16
2018-04-11T09:43:26.516Z,80.35
2018-04-11T09:44:26.533Z,78.72
2018-04-11T09:45:26.533Z,79.39
2018-04-11T09:46:26.546Z,78.81
2018-04-11T09:47:26.554Z,79.87
2018-04-11T09:48:26.566Z,79.20
2018-04-11T09:49:26.576Z,78.91
2018-04-11T09:50:26.592Z,81.30
2018-04-11T09:51:26.597Z,80.82
2018-04-11T09:52:26.610Z,81.49
2018-04-11T09:53:26.620Z,79.87
2018-04-11T09:54:26.629Z,79.87
2018-04-11T09:55:26.643Z,80.19
2018-04-11T09:56:26.654Z,79.72
2018-04-11T09:57:26.661Z,78.76
2018-04-11T09:58:26.672Z,79.14
2018-04-11T09:59:26.686Z,79.05
2018-04-11T10:00:26.702Z,80.58
2018-04-11T10:01:26.705Z,77.94
2018-04-11T10:02:26.721Z,76.31
2018-04-11T10:03:26.732Z,74.01
2018-04-11T10:04:26.737Z,74.58
2018-04-11T10:05:26.751Z,75.93
2018-04-11T10:06:26.764Z,76.98
2018-04-11T10:07:26.771Z,77.08
2018-04-11T10:08:26.782Z,77.46
2018-04-11T10:09:26.794Z,81.38
2018-04-11T10:10:26.807Z,80.29
2018-04-11T10:11:26.816Z,79.05
2018-04-11T10:12:26.828Z,78.28
2018-04-11T10:13:26.839Z,78.47
2018-04-11T10:14:26.859Z,79.47
2018-04-11T10:15:26.864Z,80.04
2018-04-11T10:16:26.873Z,80.33
2018-04-11T10:17:26.883Z,80.76
2018-04-11T10:18:26.897Z,79.03
2018-04-11T10:19:26.904Z,78.27
2018-04-11T10:20:26.919Z,78.17
2018-04-11T10:21:26.928Z,77.75
2018-04-11T10:22:26.940Z,77.17
2018-04-11T10:23:26.953Z,78.22
2018-04-11T10:24:26.965Z,79.28
2018-04-11T10:25:26.976Z,79.47
2018-04-11T10:26:26.989Z,80.08
2018-04-11T10:27:27.003Z,76.82
2018-04-11T10:28:27.006Z,74.91
2018-04-11T10:29:27.020Z,74.52
2018-04-11T10:30:27.033Z,74.91
2018-04-11T10:31:27.044Z,73.32
2018-04-11T10:32:27.055Z,72.94
2018-04-11T10:33:27.066Z,73.32
2018-04-11T10:34:27.080Z,70.83
2018-04-11T10:35:27.090Z,70.54
2018-04-11T10:36:27.106Z,68.43
2018-04-11T10:37:27.119Z,68.18
2018-04-11T10:38:27.126Z,69.23
2018-04-11T10:39:27.138Z,69.04
2018-04-11T10:40:27.151Z,69.46
2018-04-11T10:41:27.161Z,68.79
2018-04-11T10:42:27.178Z,64.66
2018-04-11T10:43:27.187Z,65.91
2018-04-11T10:44:27.199Z,67.63
2018-04-11T10:45:27.212Z,64.28
2018-04-11T10:46:27.226Z,63.70
2018-04-11T10:47:27.237Z,66.23
2018-04-11T10:48:27.321Z,63.83
2018-04-11T10:49:27.262Z,64.50
2018-04-11T10:50:27.272Z,66.77
2018-04-11T10:51:27.290Z,66.19
2018-04-11T10:52:27.301Z,66.67
2018-04-11T10:53:27.314Z,65.62
2018-04-11T10:54:27.330Z,65.33
2018-04-11T10:55:27.343Z,66.00
2018-04-11T10:56:27.354Z,66.67
2018-04-11T10:57:27.368Z,67.16
2018-04-11T10:58:27.376Z,67.41
2018-04-11T10:59:27.391Z,65.23
2018-04-11T11:00:27.404Z,64.22
2018-04-11T11:01:27.449Z,66.13
2018-04-11T11:02:27.432Z,64.98
2018-04-11T11:03:27.446Z,64.28
2018-04-11T11:04:27.458Z,65.62
2018-04-11T11:05:27.472Z,66.00
2018-04-11T11:06:27.485Z,66.55
2018-04-11T11:07:27.501Z,66.16
2018-04-11T11:08:27.512Z,67.76
2018-04-11T11:09:27.527Z,67.41
2018-04-11T11:10:27.544Z,67.22
2018-04-11T11:11:27.555Z,67.60
2018-04-11T11:12:27.570Z,63.73
2018-04-11T11:13:27.581Z,60.36
2018-04-11T11:14:27.600Z,54.44
2018-04-11T11:15:27.612Z,53.53
2018-04-11T11:16:27.653Z,52.89
2018-04-11T11:17:27.642Z,51.59
2018-04-11T11:18:27.659Z,49.92
2018-04-11T11:19:27.676Z,50.16
2018-04-11T11:20:27.693Z,46.70
2018-04-11T11:21:27.709Z,45.74
2018-04-11T11:22:27.729Z,42.08
2018-04-11T11:23:27.748Z,44.50
2018-04-11T11:24:27.767Z,45.88
2018-04-11T11:25:27.785Z,43.21
2018-04-11T11:26:27.805Z,44.54
2018-04-11T11:27:27.840Z,43.90
2018-04-11T11:28:27.845Z,43.85
2018-04-11T11:29:27.866Z,40.96
2018-04-11T11:30:27.886Z,42.13
2018-04-11T11:31:27.913Z,42.24
2018-04-11T11:32:27.933Z,43.87
2018-04-11T11:33:27.952Z,44.40
2018-04-11T11:34:27.976Z,45.40
2018-04-11T11:35:28.003Z,45.23
2018-04-11T11:36:28.021Z,44.50
2018-04-11T11:37:28.041Z,43.73
2018-04-11T11:38:28.071Z,42.92
2018-04-11T11:39:28.090Z,40.99
2018-04-11T11:40:28.131Z,40.52
2018-04-11T11:41:28.129Z,41.00
2018-04-11T11:42:28.152Z,39.62
2018-04-11T11:43:28.177Z,41.02
2018-04-11T11:44:28.200Z,41.91
2018-04-11T11:45:28.223Z,42.79
2018-04-11T11:46:28.247Z,43.12
2018-04-11T11:47:28.268Z,46.73
2018-04-11T11:48:28.293Z,49.32
2018-04-11T11:49:28.314Z,50.04
2018-04-11T11:50:28.337Z,49.58
2018-04-11T11:51:28.359Z,45.81
2018-04-11T11:52:28.380Z,44.70
2018-04-11T11:53:28.399Z,45.53
2018-04-11T11:54:28.423Z,45.29
2018-04-11T11:55:28.444Z,45.36
2018-04-11T11:56:28.463Z,46.98
2018-04-11T11:57:28.489Z,48.13
2018-04-11T11:58:28.509Z,47.00
2018-04-11T11:59:28.530Z,44.17
2018-04-11T12:00:28.553Z,39.28
2018-04-11T12:01:28.572Z,35.85
2018-04-11T12:02:28.592Z,34.14
2018-04-11T12:03:28.610Z,33.59
2018-04-11T12:04:28.638Z,33.15
2018-04-11T12:05:28.653Z,37.23
2018-04-11T12:06:28.676Z,37.57
2018-04-11T12:07:28.700Z,37.63
2018-04-11T12:08:28.719Z,39.62
2018-04-11T12:09:28.740Z,40.56
2018-04-11T12:10:28.767Z,40.67
2018-04-11T12:11:28.791Z,39.53
2018-04-11T12:12:28.809Z,37.81
2018-04-11T12:13:28.830Z,38.76
2018-04-11T12:14:28.855Z,38.29
2018-04-11T12:15:28.880Z,38.46
2018-04-11T12:16:28.899Z,39.39
2018-04-11T12:17:28.923Z,37.81
2018-04-11T12:18:28.948Z,36.99
2018-04-11T12:19:28.986Z,35.74
2018-04-11T12:20:28.996Z,35.53
2018-04-11T12:21:29.019Z,36.60
2018-04-11T12:22:29.046Z,33.81
2018-04-11T12:23:29.067Z,35.90
2018-04-11T12:24:29.089Z,38.02
2018-04-11T12:25:29.118Z,38.50
2018-04-11T12:26:29.143Z,37.36
2018-04-11T12:27:29.169Z,36.22
2018-04-11T12:28:29.191Z,36.56
2018-04-11T12:29:29.213Z,33.67
2018-04-11T12:30:29.236Z,35.46
2018-04-11T12:31:29.258Z,36.86
2018-04-11T12:32:29.283Z,38.79
2018-04-11T12:33:29.308Z,38.48
2018-04-11T12:34:29.327Z,37.42
2018-04-11T12:35:29.354Z,35.81
2018-04-11T12:36:29.376Z,35.01
2018-04-11T12:37:29.400Z,33.01
2018-04-11T12:38:29.422Z,31.79
2018-04-11T12:39:29.445Z,32.60
2018-04-11T12:40:29.469Z,31.74
2018-04-11T12:41:29.496Z,30.51
2018-04-11T12:42:29.516Z,31.13
2018-04-11T12:43:29.543Z,28.59
2018-04-11T12:44:29.563Z,29.75
2018-04-11T12:45:29.589Z,28.36
2018-04-11T12:46:29.632Z,30.14
2018-04-11T12:47:29.637Z,31.79
2018-04-11T12:48:29.665Z,31.73
2018-04-11T12:49:29.687Z,31.84
2018-04-11T12:50:29.718Z,30.80
2018-04-11T12:51:29.738Z,29.15
2018-04-11T12:52:29.765Z,29.82
2018-04-11T12:53:29.793Z,29.72
2018-04-11T12:54:29.817Z,29.04
2018-04-11T12:55:29.851Z,29.22
2018-04-11T12:56:29.869Z,28.67
2018-04-11T12:57:29.893Z,25.63
2018-04-11T12:58:29.983Z,25.64
2018-04-11T12:59:29.947Z,26.19
2018-04-11T13:00:29.972Z,27.19
2018-04-11T13:01:30.002Z,26.02
2018-04-11T13:02:30.024Z,26.13
2018-04-11T13:03:30.057Z,26.09
2018-04-11T13:04:30.085Z,28.68
2018-04-11T13:05:30.106Z,26.06
2018-04-11T13:06:30.133Z,24.32
2018-04-11T13:07:30.177Z,26.03
2018-04-11T13:08:30.197Z,25.34
2018-04-11T13:09:30.215Z,25.94
2018-04-11T13:10:30.240Z,26.78
2018-04-11T13:11:30.270Z,27.51
2018-04-11T13:12:30.294Z,29.33
2018-04-11T13:13:30.326Z,28.54
2018-04-11T13:14:30.356Z,29.71
2018-04-11T13:15:30.380Z,26.13
2018-04-11T13:16:30.408Z,26.23
2018-04-11T13:17:30.434Z,27.70
2018-04-11T13:18:30.472Z,28.00
2018-04-11T13:19:30.492Z,27.83
2018-04-11T13:20:30.518Z,26.78
2018-04-11T13:21:30.546Z,25.26
2018-04-11T13:22:30.576Z,24.14
2018-04-11T13:23:30.606Z,26.21
2018-04-11T13:24:30.632Z,26.21
2018-04-11T13:25:30.659Z,25.72